• Join FlightAware (Why Join?)
  • Login
  • US Flag 
10:39AM EST


 

Airport Tracker/Info


-or-


 

Live Flight TrackerFlight Track Log ✈ PDT4207 ✈ 20-Aug-2014 ✈ KPHL - KBGM

Flight Track Log - Related Links

Times and Time Zones

All times are in EDT time to prevent confusion due to time zone crossing. See the PDT4207 flight status page for this flight to view local times or setup timezone preferences in your user account.

Time Position Orientation Groundspeed Altitude Reporting Facility
EDT Latitude Longitude Course Direction KTS MPH feet Rate Location/Type
09:47PM 39.9000 -75.2333 311° West 123 142 400  Level Philadelphia TRACON
09:47PM 39.9000 -75.2500 270° West 125 144 800 1,417 Climbing Philadelphia TRACON
09:48PM 39.9167 -75.3000 294° West 143 165 2,100 1,150 Climbing Philadelphia TRACON
09:49PM 39.9333 -75.3333 303° West 151 174 3,100 1,050 Climbing Philadelphia TRACON
09:50PM 40.0580 -75.4080 323° Northwest  Level FlightAware Approximate
09:50PM 39.9667 -75.3667 323° Northwest 160 184 4,200  Level Philadelphia TRACON
09:51PM 40.1184 -75.4684 323° Northwest  Level FlightAware Approximate
09:51PM 40.0000 -75.4000 323° Northwest 162 186 5,200  Level Philadelphia TRACON
09:52PM 40.1817 -75.5226 311° West  Level FlightAware Approximate
09:53PM 40.0731 -75.4447 335° Northwest 166 191 7,100  Level New York Center
09:54PM 40.1072 -75.4742 327° Northwest 166 191 8,000 1,068 Climbing New York Center
09:55PM 40.1497 -75.5097 327° Northwest 166 191 9,200 1,050 Climbing New York Center
09:56PM 40.1883 -75.5339 334° Northwest 166 191 10,100 933 Climbing New York Center
09:58PM 40.2619 -75.6181 319° Northwest 166 191 12,000 633 Climbing New York Center
09:59PM 40.2994 -75.6694 314° West 185 213 12,000  Level New York Center
10:00PM 40.3344 -75.7267 309° West 212 244 12,000  Level New York Center
10:01PM 40.3736 -75.7919 308° West 227 261 12,000  Level New York Center
10:02PM 40.4203 -75.8661 310° West 237 273 12,000  Level New York Center
10:03PM 40.4639 -75.9214 316° Northwest 237 273 12,000  Level New York Center
10:04PM 40.5117 -75.9714 321° Northwest 237 273 12,000  Level New York Center
10:05PM 40.5781 -75.9764 357° North 220 253 12,000  Level New York Center
10:06PM 40.6506 -75.9900 352° North 233 268 12,000  Level New York Center
10:07PM 40.7169 -75.9922 359° North 234 269 12,000  Level New York Center
10:08PM 40.7875 -76.0006 355° North 234 269 12,000  Level New York Center
10:09PM 40.8475 -76.0078 355° North 234 269 12,000  Level New York Center
10:10PM 40.9200 -76.0189 353° North 234 269 12,000  Level New York Center
10:11PM 40.9886 -76.0214 358° North 234 269 12,000  Level New York Center
10:12PM 41.0489 -76.0289 355° North 234 269 12,000  Level New York Center
10:13PM 41.1233 -76.0375 355° North 234 269 12,000  Level New York Center
10:14PM 41.1900 -76.0369 360° North 234 269 12,000  Level New York Center
10:15PM 41.2583 -76.0453 355° North 234 269 12,000  Level New York Center
10:16PM 41.3269 -76.0533 355° North 234 269 12,000  Level New York Center
10:17PM 41.3889 -76.0608 355° North 239 275 12,000  Level New York Center
10:18PM 41.4575 -76.0664 357° North 239 275 12,000 -450 Level New York Center
10:19PM 41.5361 -76.0753 355° North 245 282 11,100 -950 Descending New York Center
10:20PM 41.6114 -76.0731 North 262 302 10,100 -1,000 Descending New York Center
10:21PM 41.6847 -76.0594 North 280 322 9,100 -550 Descending New York Center
10:22PM 41.7578 -76.0594 360° North 275 316 9,000 -750 Descending New York Center
10:23PM 41.8414 -76.0494 North 270 311 7,600 -1,438 Descending New York Center
10:24PM 41.9192 -76.0333 North 281 323 6,100 -1,500 Descending New York Center
10:25PM 41.9969 -76.0200 North 281 323 4,600 -1,261 Descending New York Center
10:26PM 42.0647 -75.9919 17° North 276 318 3,600 -857 Descending New York Center
10:27PM 42.1239 -75.9714 14° North 255 293 2,900 -600 Descending New York Center
10:28PM 42.1742 -75.9614 North 212 244 2,400 -454 Descending New York Center
10:29PM 42.2331 -75.9492 North 193 222 2,000 -400 Descending New York Center